createdAt,value
2023-03-29T00:00:05.208Z,4.21
2023-03-29T00:01:06.556Z,4.14
2023-03-29T00:01:49.087Z,4.06
2023-03-29T00:02:30.564Z,4.08
2023-03-29T00:03:11.310Z,4.12
2023-03-29T00:03:54.037Z,3.92
2023-03-29T00:04:35.204Z,4.06
2023-03-29T00:05:23.176Z,3.86
2023-03-29T00:06:21.102Z,3.95
2023-03-29T00:07:16.086Z,3.83
2023-03-29T00:08:10.088Z,3.85
2023-03-29T00:09:04.088Z,3.86
2023-03-29T00:09:58.109Z,3.85
2023-03-29T00:10:45.103Z,3.69
2023-03-29T00:11:19.176Z,3.56
2023-03-29T00:12:10.098Z,3.43
2023-03-29T00:12:46.173Z,3.58
2023-03-29T00:13:34.092Z,3.60
2023-03-29T00:14:08.201Z,3.48
2023-03-29T00:14:55.085Z,3.44
2023-03-29T00:15:29.212Z,3.40
2023-03-29T00:16:09.090Z,3.35
2023-03-29T00:16:49.200Z,3.44
2023-03-29T00:17:30.089Z,3.46
2023-03-29T00:18:10.317Z,3.34
2023-03-29T00:18:51.075Z,3.34
2023-03-29T00:19:45.096Z,3.31
2023-03-29T00:20:39.089Z,3.23
2023-03-29T00:21:26.092Z,3.25
2023-03-29T00:22:00.421Z,3.25
2023-03-29T00:22:53.072Z,3.26
2023-03-29T00:23:27.246Z,3.28
2023-03-29T00:24:14.048Z,3.38
2023-03-29T00:24:49.148Z,3.17
2023-03-29T00:25:36.070Z,3.25
2023-03-29T00:26:10.793Z,3.09
2023-03-29T00:26:52.089Z,3.12
2023-03-29T00:27:32.178Z,3.06
2023-03-29T00:28:12.072Z,2.83
2023-03-29T00:28:52.154Z,2.89
2023-03-29T00:29:33.050Z,2.79
2023-03-29T00:30:16.491Z,3.06
2023-03-29T00:30:59.088Z,3.09
2023-03-29T00:31:39.264Z,3.18
2023-03-29T00:32:20.100Z,2.99
2023-03-29T00:33:00.230Z,3.11
2023-03-29T00:33:41.062Z,3.00
2023-03-29T00:34:21.158Z,3.17
2023-03-29T00:35:03.056Z,3.10
2023-03-29T00:35:46.272Z,3.12
2023-03-29T00:36:29.066Z,3.09
2023-03-29T00:37:10.165Z,2.93
2023-03-29T00:37:53.169Z,2.87
2023-03-29T00:38:33.208Z,3.10
2023-03-29T00:39:14.072Z,2.98
2023-03-29T00:39:54.151Z,3.07
2023-03-29T00:40:34.061Z,3.25
2023-03-29T00:41:16.173Z,3.30
2023-03-29T00:41:57.067Z,3.32
2023-03-29T00:42:37.151Z,3.22
2023-03-29T00:43:19.078Z,3.21
2023-03-29T00:44:09.120Z,3.00
2023-03-29T00:45:14.082Z,3.29
2023-03-29T00:45:54.183Z,3.25
2023-03-29T00:46:37.091Z,3.32
2023-03-29T00:47:18.177Z,3.26
2023-03-29T00:48:05.086Z,3.31
2023-03-29T00:48:46.075Z,3.24
2023-03-29T00:49:20.174Z,3.31
2023-03-29T00:50:37.045Z,3.32
2023-03-29T00:51:14.450Z,3.26
2023-03-29T00:52:01.067Z,3.00
2023-03-29T00:52:37.324Z,3.26
2023-03-29T00:53:55.057Z,3.26
2023-03-29T00:54:29.122Z,3.31
2023-03-29T00:55:30.023Z,3.29
2023-03-29T00:56:11.877Z,3.32
2023-03-29T00:56:59.079Z,3.29
2023-03-29T00:57:34.149Z,3.25
2023-03-29T00:58:24.047Z,3.28
2023-03-29T00:59:24.064Z,3.30
2023-03-29T01:00:21.132Z,3.23
2023-03-29T01:01:26.109Z,3.10
2023-03-29T01:02:20.027Z,3.08
2023-03-29T01:03:21.088Z,2.91
2023-03-29T01:04:25.113Z,3.01
2023-03-29T01:05:52.032Z,3.08
2023-03-29T01:06:50.088Z,3.02
2023-03-29T01:08:11.045Z,3.01
2023-03-29T01:09:09.038Z,2.88
2023-03-29T01:09:52.035Z,3.08
2023-03-29T01:11:05.107Z,3.01
2023-03-29T01:11:54.036Z,3.05
2023-03-29T01:12:39.119Z,3.09
2023-03-29T01:13:28.032Z,3.06
2023-03-29T01:14:24.686Z,3.20
2023-03-29T01:15:13.047Z,3.20
2023-03-29T01:15:54.296Z,3.20
2023-03-29T01:16:37.015Z,3.39
2023-03-29T01:17:17.146Z,3.39
2023-03-29T01:18:00.046Z,3.35
2023-03-29T01:18:41.871Z,3.28
2023-03-29T01:19:26.029Z,3.31
2023-03-29T01:20:29.039Z,3.36
2023-03-29T01:21:40.037Z,3.31
2023-03-29T01:22:54.994Z,3.31
2023-03-29T01:24:00.063Z,3.13
2023-03-29T01:25:33.031Z,3.18
2023-03-29T01:26:47.000Z,3.13
2023-03-29T01:28:18.006Z,3.13
2023-03-29T01:29:28.019Z,3.19
2023-03-29T01:30:28.011Z,3.11
2023-03-29T01:31:39.080Z,3.09
2023-03-29T01:32:28.133Z,3.25
2023-03-29T01:33:30.013Z,3.20
2023-03-29T01:34:19.127Z,3.27
2023-03-29T01:35:53.027Z,3.24
2023-03-29T01:37:07.036Z,3.26
2023-03-29T01:38:14.999Z,3.29
2023-03-29T01:39:15.003Z,3.15
2023-03-29T01:40:09.000Z,3.14
2023-03-29T01:41:03.361Z,3.07
2023-03-29T01:42:10.021Z,2.97
2023-03-29T01:43:42.004Z,3.18
2023-03-29T01:45:00.006Z,3.22
2023-03-29T01:46:00.985Z,3.14
2023-03-29T01:47:00.993Z,3.23
2023-03-29T01:47:44.002Z,3.21
2023-03-29T01:48:36.079Z,3.08
2023-03-29T01:50:04.011Z,3.23
2023-03-29T01:51:07.103Z,3.12
2023-03-29T01:51:59.986Z,3.06
2023-03-29T01:52:54.002Z,2.99
2023-03-29T01:54:16.976Z,3.04
2023-03-29T01:55:41.960Z,2.92
2023-03-29T01:56:40.052Z,2.86
2023-03-29T01:57:35.988Z,2.92
2023-03-29T01:58:18.001Z,2.88
2023-03-29T01:59:04.138Z,2.76
2023-03-29T01:59:48.979Z,2.73
2023-03-29T02:00:34.254Z,2.67
2023-03-29T02:01:16.988Z,2.81
2023-03-29T02:02:04.859Z,2.75
2023-03-29T02:02:49.080Z,2.74
2023-03-29T02:03:40.067Z,2.65
2023-03-29T02:04:40.970Z,2.85
2023-03-29T02:05:35.972Z,2.76
2023-03-29T02:06:32.955Z,2.60
2023-03-29T02:07:29.956Z,2.75
2023-03-29T02:08:27.961Z,2.70
2023-03-29T02:09:10.043Z,2.73
2023-03-29T02:09:52.540Z,2.73
2023-03-29T02:10:33.952Z,2.83
2023-03-29T02:11:14.075Z,2.66
2023-03-29T02:11:55.956Z,2.61
2023-03-29T02:12:50.964Z,2.59
2023-03-29T02:13:45.979Z,2.65
2023-03-29T02:14:33.967Z,2.56
2023-03-29T02:15:08.103Z,2.44
2023-03-29T02:15:56.004Z,2.42
2023-03-29T02:16:30.044Z,2.59
2023-03-29T02:17:29.995Z,2.61
2023-03-29T02:18:04.121Z,2.37
2023-03-29T02:18:53.932Z,2.51
2023-03-29T02:19:30.128Z,2.52
2023-03-29T02:20:29.943Z,2.58
2023-03-29T02:21:10.094Z,2.50
2023-03-29T02:22:14.964Z,2.56
2023-03-29T02:23:34.167Z,2.59
2023-03-29T02:24:17.958Z,2.47
2023-03-29T02:25:03.447Z,2.56
2023-03-29T02:25:43.957Z,2.45
2023-03-29T02:26:24.591Z,2.51
2023-03-29T02:27:06.934Z,2.47
2023-03-29T02:27:47.071Z,2.50
2023-03-29T02:28:31.948Z,2.50
2023-03-29T02:29:12.199Z,2.45
2023-03-29T02:29:53.956Z,2.43
2023-03-29T02:31:08.013Z,2.47
2023-03-29T02:32:12.933Z,2.48
2023-03-29T02:33:16.939Z,2.38
2023-03-29T02:34:43.926Z,2.60
2023-03-29T02:35:51.997Z,2.40
2023-03-29T02:36:37.961Z,2.37
2023-03-29T02:37:22.044Z,2.50
2023-03-29T02:38:16.931Z,2.55
2023-03-29T02:38:51.510Z,2.39
2023-03-29T02:39:40.915Z,2.59
2023-03-29T02:40:17.028Z,2.34
2023-03-29T02:41:04.926Z,2.31
2023-03-29T02:41:46.963Z,2.52
2023-03-29T02:42:41.939Z,2.36
2023-03-29T02:43:37.934Z,2.32
2023-03-29T02:44:38.921Z,2.27
2023-03-29T02:45:33.927Z,2.10
2023-03-29T02:46:28.933Z,2.30
2023-03-29T02:47:40.975Z,2.43
2023-03-29T02:48:24.027Z,2.25
2023-03-29T02:49:04.927Z,2.41
2023-03-29T02:49:45.030Z,2.44
2023-03-29T02:50:26.913Z,2.23
2023-03-29T02:51:12.035Z,2.40
2023-03-29T02:51:53.927Z,2.52
2023-03-29T02:52:47.926Z,2.40
2023-03-29T02:53:51.921Z,2.32
2023-03-29T02:54:49.920Z,2.36
2023-03-29T02:55:43.924Z,2.50
2023-03-29T02:56:37.919Z,2.39
2023-03-29T02:57:32.906Z,2.51
2023-03-29T02:58:16.929Z,2.39
2023-03-29T02:58:57.003Z,2.20
2023-03-29T02:59:37.898Z,2.17
2023-03-29T03:00:19.845Z,2.55
2023-03-29T03:01:01.299Z,2.44
2023-03-29T03:01:45.068Z,2.31
2023-03-29T03:02:26.111Z,2.56
2023-03-29T03:03:06.206Z,2.43
2023-03-29T03:03:45.996Z,2.40
2023-03-29T03:04:26.443Z,2.43
2023-03-29T03:05:06.904Z,2.52
2023-03-29T03:05:46.984Z,2.37
2023-03-29T03:06:27.906Z,2.50
2023-03-29T03:07:09.333Z,2.28
2023-03-29T03:07:49.903Z,2.28
2023-03-29T03:08:31.993Z,2.23
2023-03-29T03:09:12.988Z,2.27
2023-03-29T03:09:53.992Z,2.17
2023-03-29T03:10:34.901Z,2.15
2023-03-29T03:11:15.339Z,1.88
2023-03-29T03:11:54.906Z,2.19
2023-03-29T03:12:35.144Z,2.36
2023-03-29T03:13:15.894Z,2.43
2023-03-29T03:13:56.318Z,2.32
2023-03-29T03:14:36.936Z,2.39
2023-03-29T03:15:18.417Z,2.26
2023-03-29T03:15:57.934Z,2.31
2023-03-29T03:16:38.631Z,2.29
2023-03-29T03:17:18.920Z,2.32
2023-03-29T03:18:00.679Z,2.38
2023-03-29T03:18:41.880Z,2.40
2023-03-29T03:19:22.972Z,2.39
2023-03-29T03:20:02.905Z,2.53
2023-03-29T03:20:46.978Z,2.34
2023-03-29T03:21:27.887Z,2.53
2023-03-29T03:22:09.870Z,2.47
2023-03-29T03:22:54.888Z,2.39
2023-03-29T03:23:36.347Z,2.57
2023-03-29T03:24:16.868Z,2.55
2023-03-29T03:24:56.977Z,2.66
2023-03-29T03:25:37.907Z,2.73
2023-03-29T03:26:18.999Z,2.81
2023-03-29T03:26:59.889Z,2.77
2023-03-29T03:27:39.994Z,2.71
2023-03-29T03:28:20.895Z,2.80
2023-03-29T03:29:01.162Z,2.97
2023-03-29T03:29:42.876Z,2.78
2023-03-29T03:30:23.974Z,3.01
2023-03-29T03:31:04.883Z,2.96
2023-03-29T03:31:45.017Z,2.90
2023-03-29T03:32:24.851Z,3.08
2023-03-29T03:33:05.034Z,3.12
2023-03-29T03:33:44.867Z,3.16
2023-03-29T03:34:26.275Z,3.18
2023-03-29T03:35:06.907Z,3.12
2023-03-29T03:35:47.885Z,3.15
2023-03-29T03:36:32.892Z,3.23
2023-03-29T03:37:13.064Z,3.27
2023-03-29T03:37:52.851Z,3.26
2023-03-29T03:38:32.947Z,3.33
2023-03-29T03:39:13.864Z,2.99
2023-03-29T03:39:53.941Z,2.87
2023-03-29T03:40:33.872Z,3.02
2023-03-29T03:41:13.943Z,2.95
2023-03-29T03:41:53.884Z,3.02
2023-03-29T03:42:34.950Z,3.13
2023-03-29T03:43:15.936Z,2.99
2023-03-29T03:43:56.018Z,3.05
2023-03-29T03:44:35.830Z,2.83
2023-03-29T03:45:17.973Z,2.81
2023-03-29T03:45:58.904Z,3.05
2023-03-29T03:46:38.995Z,3.08
2023-03-29T03:47:20.877Z,3.01
2023-03-29T03:48:01.141Z,3.06
2023-03-29T03:48:40.846Z,3.21
2023-03-29T03:49:21.895Z,3.26
2023-03-29T03:50:01.837Z,3.19
2023-03-29T03:50:41.942Z,3.23
2023-03-29T03:51:22.840Z,3.21
2023-03-29T03:52:02.935Z,3.35
2023-03-29T03:52:42.840Z,3.27
2023-03-29T03:53:23.486Z,3.44
2023-03-29T03:54:03.841Z,3.38
2023-03-29T03:54:46.539Z,3.22
2023-03-29T03:55:28.831Z,3.37
2023-03-29T03:56:09.232Z,3.34
2023-03-29T03:56:49.899Z,3.33
2023-03-29T03:57:29.932Z,3.28
2023-03-29T03:58:10.856Z,3.40
2023-03-29T03:58:50.929Z,3.35
2023-03-29T03:59:31.824Z,3.47
2023-03-29T04:00:20.290Z,3.32
2023-03-29T04:01:01.026Z,3.50
2023-03-29T04:01:43.852Z,3.35
2023-03-29T04:02:23.852Z,3.43
2023-03-29T04:03:06.109Z,3.49
2023-03-29T04:03:46.905Z,3.44
2023-03-29T04:04:27.071Z,3.50
2023-03-29T04:05:09.824Z,3.40
2023-03-29T04:05:51.988Z,3.45
2023-03-29T04:06:31.846Z,3.49
2023-03-29T04:07:13.120Z,3.41
2023-03-29T04:07:53.838Z,3.28
2023-03-29T04:08:33.933Z,3.47
2023-03-29T04:09:15.907Z,3.47
2023-03-29T04:09:55.914Z,3.32
2023-03-29T04:10:35.823Z,3.43
2023-03-29T04:11:15.937Z,3.35
2023-03-29T04:11:59.818Z,3.31
2023-03-29T04:12:39.987Z,3.29
2023-03-29T04:13:19.841Z,3.34
2023-03-29T04:14:00.172Z,3.34
2023-03-29T04:14:39.842Z,3.38
2023-03-29T04:15:20.653Z,3.49
2023-03-29T04:16:02.893Z,3.49
2023-03-29T04:16:42.915Z,3.52
2023-03-29T04:17:22.855Z,3.40
2023-03-29T04:18:03.977Z,3.52
2023-03-29T04:18:43.925Z,3.55
2023-03-29T04:19:23.951Z,3.46
2023-03-29T04:20:04.854Z,3.49
2023-03-29T04:20:44.919Z,3.26
2023-03-29T04:21:24.805Z,3.42
2023-03-29T04:22:04.893Z,3.31
2023-03-29T04:22:45.795Z,3.42
2023-03-29T04:23:25.890Z,3.28
2023-03-29T04:24:06.801Z,3.19
2023-03-29T04:24:46.888Z,3.33
2023-03-29T04:25:28.851Z,3.17
2023-03-29T04:26:08.977Z,3.35
2023-03-29T04:26:49.824Z,3.16
2023-03-29T04:27:29.957Z,3.28
2023-03-29T04:28:10.818Z,3.32
2023-03-29T04:28:51.003Z,3.37
2023-03-29T04:29:31.833Z,3.39
2023-03-29T04:30:13.014Z,3.34
2023-03-29T04:30:54.898Z,3.15
2023-03-29T04:31:34.977Z,3.36
2023-03-29T04:32:15.818Z,3.02
2023-03-29T04:32:56.296Z,3.19
2023-03-29T04:33:36.835Z,3.14
2023-03-29T04:34:17.181Z,3.28
2023-03-29T04:34:57.832Z,2.98
2023-03-29T04:35:38.216Z,3.16
2023-03-29T04:36:19.836Z,3.25
2023-03-29T04:36:59.918Z,3.33
2023-03-29T04:37:40.844Z,3.15
2023-03-29T04:38:23.419Z,3.24
2023-03-29T04:39:07.921Z,3.30
2023-03-29T04:39:47.898Z,3.26
2023-03-29T04:40:28.823Z,3.11
2023-03-29T04:41:09.943Z,3.28
2023-03-29T04:41:51.861Z,3.23
2023-03-29T04:42:34.252Z,3.27
2023-03-29T04:43:13.813Z,3.20
2023-03-29T04:43:55.976Z,3.15
2023-03-29T04:44:36.872Z,3.12
2023-03-29T04:45:18.266Z,3.25
2023-03-29T04:45:57.864Z,3.17
2023-03-29T04:46:40.234Z,3.12
2023-03-29T04:47:19.874Z,3.22
2023-03-29T04:47:59.954Z,3.09
2023-03-29T04:48:42.809Z,3.12
2023-03-29T04:49:36.774Z,3.23
2023-03-29T04:50:30.782Z,3.20
2023-03-29T04:51:24.792Z,3.27
2023-03-29T04:53:15.860Z,3.15
2023-03-29T04:54:09.787Z,3.06
2023-03-29T04:55:03.806Z,3.13
2023-03-29T04:56:01.799Z,3.28
2023-03-29T04:56:55.836Z,3.21
2023-03-29T04:57:42.828Z,3.27
2023-03-29T04:58:17.355Z,3.23
2023-03-29T04:59:04.828Z,3.27
2023-03-29T04:59:39.166Z,3.22
2023-03-29T05:00:33.816Z,2.98
2023-03-29T05:01:08.065Z,3.22
2023-03-29T05:01:54.865Z,3.14
2023-03-29T05:02:32.197Z,3.14
2023-03-29T05:03:13.815Z,3.09
2023-03-29T05:03:53.945Z,3.08
2023-03-29T05:04:39.832Z,3.20
2023-03-29T05:05:21.216Z,3.29
2023-03-29T05:06:01.796Z,3.23
2023-03-29T05:06:41.952Z,3.15
2023-03-29T05:07:24.790Z,3.22
2023-03-29T05:08:04.905Z,3.35
2023-03-29T05:08:46.821Z,3.16
2023-03-29T05:09:26.904Z,3.23
2023-03-29T05:10:07.814Z,3.13
2023-03-29T05:10:53.107Z,3.23
2023-03-29T05:11:33.805Z,3.35
2023-03-29T05:12:14.883Z,3.19
2023-03-29T05:12:59.798Z,3.33
2023-03-29T05:13:41.095Z,3.33
2023-03-29T05:14:21.852Z,3.34
2023-03-29T05:15:02.335Z,3.22
2023-03-29T05:15:43.778Z,3.37
2023-03-29T05:16:24.708Z,3.29
2023-03-29T05:17:05.770Z,3.39
2023-03-29T05:17:45.894Z,3.37
2023-03-29T05:18:26.786Z,3.44
2023-03-29T05:19:09.129Z,3.27
2023-03-29T05:19:49.801Z,3.37
2023-03-29T05:20:29.897Z,3.27
2023-03-29T05:21:10.753Z,3.27
2023-03-29T05:21:51.137Z,3.26
2023-03-29T05:22:31.788Z,3.31
2023-03-29T05:23:12.518Z,3.27
2023-03-29T05:23:52.794Z,3.35
2023-03-29T05:24:32.903Z,3.33
2023-03-29T05:25:14.802Z,3.42
2023-03-29T05:25:54.884Z,3.13
2023-03-29T05:26:35.799Z,3.35
2023-03-29T05:27:17.153Z,3.52
2023-03-29T05:27:57.767Z,3.28
2023-03-29T05:28:37.988Z,3.44
2023-03-29T05:29:18.768Z,3.36
2023-03-29T05:29:58.885Z,3.55
2023-03-29T05:30:39.877Z,3.49
2023-03-29T05:31:19.910Z,3.56
2023-03-29T05:32:00.877Z,3.58
2023-03-29T05:32:42.968Z,3.40
2023-03-29T05:33:22.778Z,3.40
2023-03-29T05:34:02.858Z,3.49
2023-03-29T05:34:43.811Z,3.36
2023-03-29T05:35:25.514Z,3.51
2023-03-29T05:36:15.870Z,3.63
2023-03-29T05:36:56.870Z,3.55
2023-03-29T05:37:39.763Z,3.66
2023-03-29T05:38:19.895Z,3.66
2023-03-29T05:39:00.777Z,3.71
2023-03-29T05:39:40.869Z,3.63
2023-03-29T05:40:21.727Z,3.69
2023-03-29T05:41:02.989Z,3.63
2023-03-29T05:41:43.797Z,3.76
2023-03-29T05:42:24.744Z,3.75
2023-03-29T05:43:05.748Z,3.76
2023-03-29T05:43:46.410Z,3.84
2023-03-29T05:44:27.761Z,3.62
2023-03-29T05:45:07.913Z,3.80
2023-03-29T05:45:47.775Z,3.95
2023-03-29T05:46:27.899Z,3.91
2023-03-29T05:47:08.783Z,3.86
2023-03-29T05:47:48.886Z,3.96
2023-03-29T05:48:32.725Z,3.80
2023-03-29T05:49:12.857Z,3.90
2023-03-29T05:49:53.739Z,3.86
2023-03-29T05:50:34.567Z,3.82
2023-03-29T05:51:15.777Z,3.90
2023-03-29T05:51:58.455Z,4.02
2023-03-29T05:52:38.778Z,3.93
2023-03-29T05:53:18.919Z,4.15
2023-03-29T05:53:59.736Z,3.98
2023-03-29T05:54:39.857Z,4.06
2023-03-29T05:55:20.710Z,4.07
2023-03-29T05:56:01.146Z,4.17
2023-03-29T05:56:40.765Z,4.03
2023-03-29T05:57:20.985Z,4.03
2023-03-29T05:58:00.734Z,3.98
2023-03-29T05:58:41.168Z,4.21
2023-03-29T05:59:21.752Z,4.19
2023-03-29T06:00:02.007Z,4.20
2023-03-29T06:00:44.730Z,4.17
2023-03-29T06:01:25.911Z,4.19
2023-03-29T06:03:20.814Z,4.19
2023-03-29T06:03:57.364Z,4.16
2023-03-29T06:04:44.927Z,4.31
2023-03-29T06:05:19.850Z,4.38
2023-03-29T06:06:08.770Z,4.35
2023-03-29T06:06:42.808Z,4.18
2023-03-29T06:07:30.744Z,4.21
2023-03-29T06:08:04.802Z,4.32
2023-03-29T06:08:44.707Z,4.37
2023-03-29T06:09:25.698Z,4.23
2023-03-29T06:10:06.726Z,4.33
2023-03-29T06:10:47.151Z,4.32
2023-03-29T06:11:28.728Z,4.32
2023-03-29T06:12:08.825Z,4.52
2023-03-29T06:12:49.734Z,4.44
2023-03-29T06:13:29.823Z,4.41
2023-03-29T06:14:10.712Z,4.52
2023-03-29T06:14:50.837Z,4.59
2023-03-29T06:15:31.703Z,4.66
2023-03-29T06:16:14.013Z,4.57
2023-03-29T06:16:53.764Z,4.57
2023-03-29T06:17:34.428Z,4.67
2023-03-29T06:18:16.820Z,4.56
2023-03-29T06:18:56.820Z,4.56
2023-03-29T06:19:36.795Z,4.71
2023-03-29T06:20:18.397Z,4.45
2023-03-29T06:20:59.856Z,4.69
2023-03-29T06:21:41.275Z,4.73
2023-03-29T06:22:21.682Z,4.71
2023-03-29T06:23:02.064Z,4.49
2023-03-29T06:23:42.743Z,4.47
2023-03-29T06:24:24.989Z,4.42
2023-03-29T06:25:04.710Z,4.52
2023-03-29T06:25:45.133Z,4.64
2023-03-29T06:26:26.678Z,4.63
2023-03-29T06:27:06.790Z,4.60
2023-03-29T06:27:47.690Z,4.69
2023-03-29T06:28:28.775Z,4.63
2023-03-29T06:29:10.712Z,4.66
2023-03-29T06:29:50.787Z,4.85
2023-03-29T06:30:31.738Z,4.71
2023-03-29T06:31:33.735Z,4.61
2023-03-29T06:32:27.707Z,4.66
2023-03-29T06:33:23.668Z,4.71
2023-03-29T06:34:18.697Z,4.81
2023-03-29T06:35:12.700Z,4.91
2023-03-29T06:35:54.741Z,4.80
2023-03-29T06:36:35.011Z,5.05
2023-03-29T06:37:14.702Z,4.92
2023-03-29T06:37:55.987Z,5.18
2023-03-29T06:38:37.679Z,5.22
2023-03-29T06:39:17.869Z,4.95
2023-03-29T06:39:59.695Z,4.95
2023-03-29T06:40:40.806Z,5.04
2023-03-29T06:41:21.707Z,4.89
2023-03-29T06:42:10.099Z,5.22
2023-03-29T06:43:03.712Z,4.74
2023-03-29T06:43:43.770Z,4.94
2023-03-29T06:44:24.687Z,4.75
2023-03-29T06:45:04.808Z,4.89
2023-03-29T06:45:45.677Z,4.88
2023-03-29T06:46:39.784Z,4.92
2023-03-29T06:47:37.677Z,5.11
2023-03-29T06:48:31.653Z,5.17
2023-03-29T06:49:25.674Z,5.14
2023-03-29T06:50:20.703Z,5.27
2023-03-29T06:51:14.660Z,5.24
2023-03-29T06:52:03.711Z,5.30
2023-03-29T06:52:37.746Z,5.41
2023-03-29T06:53:24.666Z,5.11
2023-03-29T06:53:58.788Z,5.24
2023-03-29T06:54:45.667Z,5.42
2023-03-29T06:55:21.963Z,5.46
2023-03-29T06:56:11.685Z,5.56
2023-03-29T06:56:48.654Z,5.31
2023-03-29T06:57:30.724Z,5.43
2023-03-29T06:58:11.052Z,5.35
2023-03-29T06:58:51.678Z,5.24
2023-03-29T06:59:33.371Z,5.31
2023-03-29T07:00:24.674Z,5.20
2023-03-29T07:01:09.325Z,5.43
2023-03-29T07:01:51.718Z,5.41
2023-03-29T07:02:38.713Z,5.38
2023-03-29T07:03:32.650Z,5.38
2023-03-29T07:04:26.704Z,5.18
2023-03-29T07:05:23.652Z,5.22
2023-03-29T07:06:18.686Z,5.42
2023-03-29T07:07:13.626Z,5.53
2023-03-29T07:08:03.664Z,5.48
2023-03-29T07:08:43.305Z,5.31
2023-03-29T07:09:32.702Z,5.44
2023-03-29T07:10:07.332Z,5.57
2023-03-29T07:10:59.798Z,5.58
2023-03-29T07:11:36.826Z,5.50
2023-03-29T07:12:23.664Z,5.77
2023-03-29T07:12:57.746Z,5.74
2023-03-29T07:13:39.644Z,5.90
2023-03-29T07:14:19.745Z,5.58
2023-03-29T07:14:59.643Z,5.57
2023-03-29T07:15:39.723Z,5.52
2023-03-29T07:16:20.782Z,5.59
2023-03-29T07:17:04.951Z,5.70
2023-03-29T07:17:46.657Z,5.62
2023-03-29T07:18:26.814Z,5.83
2023-03-29T07:19:07.639Z,5.86
2023-03-29T07:19:48.862Z,5.90
2023-03-29T07:20:29.872Z,6.03
2023-03-29T07:21:10.555Z,6.09
2023-03-29T07:21:51.649Z,6.03
2023-03-29T07:22:31.746Z,5.90
2023-03-29T07:23:12.644Z,5.65
2023-03-29T07:23:52.739Z,5.83
2023-03-29T07:24:32.715Z,5.79
2023-03-29T07:25:13.743Z,5.98
2023-03-29T07:25:54.618Z,5.69
2023-03-29T07:26:34.992Z,5.90
2023-03-29T07:27:15.612Z,5.99
2023-03-29T07:27:56.726Z,6.02
2023-03-29T07:28:36.635Z,6.23
2023-03-29T07:29:16.773Z,6.28
2023-03-29T07:29:57.661Z,6.23
2023-03-29T07:30:38.746Z,6.26
2023-03-29T07:31:19.642Z,6.18
2023-03-29T07:32:00.205Z,5.96
2023-03-29T07:32:42.838Z,6.02
2023-03-29T07:33:22.820Z,5.92
2023-03-29T07:34:03.742Z,5.82
2023-03-29T07:34:43.707Z,6.13
2023-03-29T07:35:24.831Z,6.05
2023-03-29T07:36:04.991Z,6.12
2023-03-29T07:36:45.634Z,6.20
2023-03-29T07:37:25.756Z,6.45
2023-03-29T07:38:06.602Z,6.42
2023-03-29T07:39:00.619Z,6.48
2023-03-29T07:39:54.615Z,6.60
2023-03-29T07:40:42.625Z,6.61
2023-03-29T07:41:16.779Z,6.68
2023-03-29T07:42:04.632Z,6.73
2023-03-29T07:42:38.708Z,6.68
2023-03-29T07:43:25.634Z,6.61
2023-03-29T07:44:04.933Z,6.43
2023-03-29T07:44:52.609Z,6.61
2023-03-29T07:45:29.704Z,6.53
2023-03-29T07:46:12.641Z,6.44
2023-03-29T07:46:52.700Z,6.51
2023-03-29T07:47:33.649Z,6.60
2023-03-29T07:48:14.019Z,6.54
2023-03-29T07:48:54.595Z,6.58
2023-03-29T07:49:34.727Z,6.65
2023-03-29T07:50:16.607Z,6.57
2023-03-29T07:50:56.854Z,6.67
2023-03-29T07:51:37.596Z,6.72
2023-03-29T07:52:18.118Z,6.53
2023-03-29T07:52:59.587Z,6.81
2023-03-29T07:53:39.862Z,6.48
2023-03-29T07:54:20.638Z,6.68
2023-03-29T07:55:02.166Z,6.62
2023-03-29T07:55:44.021Z,6.85
2023-03-29T07:56:27.003Z,6.66
2023-03-29T07:57:07.699Z,6.75
2023-03-29T07:57:47.696Z,6.94
2023-03-29T07:58:28.579Z,6.81
2023-03-29T07:59:09.682Z,6.81
2023-03-29T07:59:49.575Z,6.88
2023-03-29T08:00:29.741Z,6.97
2023-03-29T08:01:12.858Z,6.92
2023-03-29T08:01:55.325Z,7.05
2023-03-29T08:02:58.740Z,7.19
2023-03-29T08:03:52.698Z,7.09
2023-03-29T08:04:46.588Z,7.21
2023-03-29T08:05:41.834Z,7.37
2023-03-29T08:06:36.568Z,7.23
2023-03-29T08:07:25.787Z,7.17
2023-03-29T08:08:06.606Z,7.14
2023-03-29T08:08:46.807Z,7.07
2023-03-29T08:09:26.579Z,7.11
2023-03-29T08:10:06.805Z,7.18
2023-03-29T08:10:48.572Z,6.99
2023-03-29T08:11:28.942Z,7.08
2023-03-29T08:12:09.563Z,7.22
2023-03-29T08:12:50.675Z,7.23
2023-03-29T08:13:30.620Z,7.37
2023-03-29T08:14:11.414Z,7.14
2023-03-29T08:14:52.608Z,7.33
2023-03-29T08:15:33.694Z,7.29
2023-03-29T08:16:15.694Z,7.32
2023-03-29T08:16:56.753Z,7.36
2023-03-29T08:17:37.669Z,7.35
2023-03-29T08:18:17.649Z,7.28
2023-03-29T08:18:57.588Z,7.22
2023-03-29T08:19:37.633Z,7.48
2023-03-29T08:20:22.581Z,7.43
2023-03-29T08:21:02.832Z,7.50
2023-03-29T08:21:43.558Z,7.48
2023-03-29T08:22:23.676Z,7.34
2023-03-29T08:23:03.604Z,7.36
2023-03-29T08:23:43.730Z,7.30
2023-03-29T08:24:24.578Z,7.35
2023-03-29T08:25:04.683Z,7.47
2023-03-29T08:25:45.559Z,7.53
2023-03-29T08:26:25.764Z,7.45
2023-03-29T08:27:05.585Z,7.62
2023-03-29T08:27:45.698Z,7.63
2023-03-29T08:28:26.586Z,7.57
2023-03-29T08:29:08.296Z,7.71
2023-03-29T08:29:48.640Z,7.67
2023-03-29T08:30:28.775Z,7.63
2023-03-29T08:31:08.634Z,7.57
2023-03-29T08:31:49.737Z,7.67
2023-03-29T08:32:30.542Z,7.57
2023-03-29T08:33:10.757Z,7.66
2023-03-29T08:33:50.580Z,7.70
2023-03-29T08:34:31.799Z,7.67
2023-03-29T08:35:13.581Z,7.53
2023-03-29T08:35:53.673Z,7.59
2023-03-29T08:36:34.549Z,7.67
2023-03-29T08:37:14.931Z,7.52
2023-03-29T08:37:54.579Z,7.51
2023-03-29T08:38:34.676Z,7.65
2023-03-29T08:39:14.605Z,7.67
2023-03-29T08:39:54.678Z,7.57
2023-03-29T08:40:36.611Z,7.78
2023-03-29T08:41:48.686Z,7.71
2023-03-29T08:42:56.576Z,7.88
2023-03-29T08:44:00.665Z,7.85
2023-03-29T08:44:57.567Z,7.79
2023-03-29T08:46:34.523Z,7.80
2023-03-29T08:47:54.585Z,7.89
2023-03-29T08:49:00.540Z,7.79
2023-03-29T08:49:57.541Z,7.92
2023-03-29T08:51:05.631Z,7.93
2023-03-29T08:51:54.560Z,8.10
2023-03-29T08:53:02.671Z,8.17
2023-03-29T08:53:56.578Z,8.28
2023-03-29T08:54:47.708Z,8.24
2023-03-29T08:55:33.535Z,8.13
2023-03-29T08:56:27.704Z,8.49
2023-03-29T08:57:18.615Z,8.42
2023-03-29T08:57:59.617Z,8.49
2023-03-29T08:58:41.855Z,8.62
2023-03-29T08:59:29.697Z,8.53
2023-03-29T09:00:12.534Z,8.60
2023-03-29T09:01:00.849Z,8.51
2023-03-29T09:01:42.552Z,8.50
2023-03-29T09:02:45.638Z,8.48
2023-03-29T09:04:15.516Z,8.56
2023-03-29T09:05:41.527Z,8.44
2023-03-29T09:06:35.544Z,8.71
2023-03-29T09:07:29.556Z,8.71
2023-03-29T09:08:09.560Z,8.94
2023-03-29T09:08:53.711Z,8.77
2023-03-29T09:09:40.529Z,8.72
2023-03-29T09:10:24.618Z,8.74
2023-03-29T09:11:32.500Z,8.76
2023-03-29T09:12:30.832Z,8.76
2023-03-29T09:13:32.623Z,8.77
2023-03-29T09:14:37.643Z,9.04
2023-03-29T09:15:26.509Z,9.00
2023-03-29T09:16:09.801Z,9.03
2023-03-29T09:17:20.511Z,9.04
2023-03-29T09:18:46.663Z,9.11
2023-03-29T09:20:09.517Z,9.16
2023-03-29T09:21:17.510Z,9.24
2023-03-29T09:22:27.525Z,9.44
2023-03-29T09:23:52.588Z,9.53
2023-03-29T09:25:11.545Z,9.16
2023-03-29T09:26:46.517Z,9.42
2023-03-29T09:27:46.507Z,9.44
2023-03-29T09:28:57.526Z,9.28
2023-03-29T09:30:18.504Z,9.27
2023-03-29T09:31:45.557Z,9.32
2023-03-29T09:32:46.583Z,9.44
2023-03-29T09:33:54.533Z,9.50
2023-03-29T09:34:46.567Z,9.64
2023-03-29T09:36:18.690Z,9.73
2023-03-29T09:37:03.494Z,9.71
2023-03-29T09:37:58.503Z,9.49
2023-03-29T09:39:00.516Z,9.63
2023-03-29T09:39:54.510Z,9.64
2023-03-29T09:40:53.515Z,9.70
2023-03-29T09:42:16.484Z,9.90
2023-03-29T09:43:11.493Z,10.01
2023-03-29T09:44:06.671Z,10.01
2023-03-29T09:45:17.516Z,9.81
2023-03-29T09:46:15.569Z,10.01
2023-03-29T09:47:19.533Z,10.07
2023-03-29T09:48:30.473Z,9.91
2023-03-29T09:49:40.456Z,10.03
2023-03-29T09:50:59.540Z,9.82
2023-03-29T09:51:54.482Z,10.06
2023-03-29T09:52:48.478Z,10.24
2023-03-29T09:53:42.512Z,10.27
2023-03-29T09:54:36.483Z,10.35
2023-03-29T09:55:32.545Z,10.28
2023-03-29T09:56:22.496Z,10.37
2023-03-29T09:56:56.653Z,10.51
2023-03-29T09:57:44.506Z,10.28
2023-03-29T09:58:39.602Z,10.30
2023-03-29T09:59:27.494Z,10.23
2023-03-29T10:00:05.598Z,10.04
2023-03-29T10:00:54.493Z,10.14
2023-03-29T10:01:35.547Z,10.18
2023-03-29T10:03:10.044Z,9.93
2023-03-29T10:04:06.508Z,9.97
2023-03-29T10:05:10.484Z,10.17
2023-03-29T10:06:08.459Z,10.31
2023-03-29T10:06:56.498Z,10.40
2023-03-29T10:07:30.548Z,10.17
2023-03-29T10:08:45.490Z,10.45
2023-03-29T10:09:27.650Z,10.35
2023-03-29T10:10:17.450Z,10.41
2023-03-29T10:10:51.610Z,10.56
2023-03-29T10:11:44.484Z,10.50
2023-03-29T10:12:26.510Z,10.41
2023-03-29T10:13:48.461Z,10.24
2023-03-29T10:14:47.485Z,10.28
2023-03-29T10:15:43.449Z,10.20
2023-03-29T10:16:43.502Z,10.20
2023-03-29T10:17:41.550Z,10.36
2023-03-29T10:18:38.467Z,10.20
2023-03-29T10:19:45.461Z,10.33
2023-03-29T10:20:39.430Z,10.42
2023-03-29T10:21:34.459Z,10.21
2023-03-29T10:22:47.462Z,10.50